sensor_id;sensor_type;location;lat;lon;timestamp;pressure;altitude;pressure_sealevel;temperature;humidity
48553;BME280;34335;51.566;6.994;2023-01-15T00:00:09;99386.72;;;5.43;100.00
48553;BME280;34335;51.566;6.994;2023-01-15T00:02:35;99385.03;;;5.05;100.00
48553;BME280;34335;51.566;6.994;2023-01-15T00:05:00;99396.16;;;5.05;100.00
48553;BME280;34335;51.566;6.994;2023-01-15T00:07:27;99394.44;;;4.96;100.00
48553;BME280;34335;51.566;6.994;2023-01-15T00:09:52;99391.03;;;4.94;100.00
48553;BME280;34335;51.566;6.994;2023-01-15T00:12:17;99377.28;;;5.00;100.00
48553;BME280;34335;51.566;6.994;2023-01-15T00:14:43;99357.53;;;5.04;100.00
48553;BME280;34335;51.566;6.994;2023-01-15T00:17:08;99365.25;;;5.01;100.00
48553;BME280;34335;51.566;6.994;2023-01-15T00:19:33;99352.38;;;5.01;100.00
48553;BME280;34335;51.566;6.994;2023-01-15T00:21:59;99375.53;;;5.21;100.00
48553;BME280;34335;51.566;6.994;2023-01-15T00:24:24;99380.69;;;5.21;100.00
48553;BME280;34335;51.566;6.994;2023-01-15T00:27:09;99379.84;;;5.08;100.00
48553;BME280;34335;51.566;6.994;2023-01-15T00:29:53;99369.53;;;5.17;100.00
48553;BME280;34335;51.566;6.994;2023-01-15T00:32:18;99379.84;;;5.12;100.00
48553;BME280;34335;51.566;6.994;2023-01-15T00:34:44;99384.16;;;5.09;100.00
48553;BME280;34335;51.566;6.994;2023-01-15T00:37:09;99369.56;;;5.14;100.00
48553;BME280;34335;51.566;6.994;2023-01-15T00:39:34;99363.53;;;5.13;100.00
48553;BME280;34335;51.566;6.994;2023-01-15T00:41:59;99355.78;;;5.18;100.00
48553;BME280;34335;51.566;6.994;2023-01-15T00:44:25;99348.06;;;5.12;100.00
48553;BME280;34335;51.566;6.994;2023-01-15T00:46:50;99350.63;;;5.18;100.00
48553;BME280;34335;51.566;6.994;2023-01-15T00:49:16;99347.22;;;5.13;100.00
48553;BME280;34335;51.566;6.994;2023-01-15T00:51:41;99353.22;;;5.10;100.00
48553;BME280;34335;51.566;6.994;2023-01-15T00:54:06;99355.81;;;5.12;100.00
48553;BME280;34335;51.566;6.994;2023-01-15T00:56:32;99358.38;;;5.09;100.00
48553;BME280;34335;51.566;6.994;2023-01-15T00:58:57;99350.66;;;5.12;100.00
48553;BME280;34335;51.566;6.994;2023-01-15T01:01:25;99336.06;;;5.05;100.00
48553;BME280;34335;51.566;6.994;2023-01-15T01:03:50;99342.91;;;5.06;100.00
48553;BME280;34335;51.566;6.994;2023-01-15T01:06:18;99350.63;;;5.06;100.00
48553;BME280;34335;51.566;6.994;2023-01-15T01:08:43;99330.91;;;5.09;100.00
48553;BME280;34335;51.566;6.994;2023-01-15T01:11:12;99338.59;;;5.12;100.00
48553;BME280;34335;51.566;6.994;2023-01-15T01:13:38;99347.22;;;5.13;100.00
48553;BME280;34335;51.566;6.994;2023-01-15T01:16:15;99350.63;;;5.15;100.00
48553;BME280;34335;51.566;6.994;2023-01-15T01:18:44;99360.94;;;5.24;100.00
48553;BME280;34335;51.566;6.994;2023-01-15T01:21:10;99363.50;;;5.20;100.00
48553;BME280;34335;51.566;6.994;2023-01-15T01:23:35;99374.69;;;5.20;100.00
48553;BME280;34335;51.566;6.994;2023-01-15T01:26:00;99370.41;;;5.28;100.00
48553;BME280;34335;51.566;6.994;2023-01-15T01:28:25;99376.41;;;5.27;100.00
48553;BME280;34335;51.566;6.994;2023-01-15T01:30:51;99392.72;;;5.34;100.00
48553;BME280;34335;51.566;6.994;2023-01-15T01:33:16;99383.25;;;5.35;100.00
48553;BME280;34335;51.566;6.994;2023-01-15T01:35:49;99378.13;;;5.38;100.00
48553;BME280;34335;51.566;6.994;2023-01-15T01:38:15;99380.69;;;5.38;100.00
48553;BME280;34335;51.566;6.994;2023-01-15T01:40:41;99367.81;;;5.38;100.00
48553;BME280;34335;51.566;6.994;2023-01-15T01:43:22;99379.84;;;5.34;100.00
48553;BME280;34335;51.566;6.994;2023-01-15T01:45:47;99397.88;;;5.39;100.00
48553;BME280;34335;51.566;6.994;2023-01-15T01:48:14;99391.00;;;5.41;100.00
48553;BME280;34335;51.566;6.994;2023-01-15T01:50:42;99388.41;;;5.35;100.00
48553;BME280;34335;51.566;6.994;2023-01-15T01:53:15;99385.00;;;5.36;100.00
48553;BME280;34335;51.566;6.994;2023-01-15T01:55:41;99376.41;;;5.38;100.00
48553;BME280;34335;51.566;6.994;2023-01-15T01:58:09;99381.56;;;5.37;100.00
48553;BME280;34335;51.566;6.994;2023-01-15T02:00:37;99380.69;;;5.39;100.00
48553;BME280;34335;51.566;6.994;2023-01-15T02:03:06;99390.16;;;5.36;100.00
48553;BME280;34335;51.566;6.994;2023-01-15T02:05:37;99384.16;;;5.38;100.00
48553;BME280;34335;51.566;6.994;2023-01-15T02:08:04;99386.72;;;5.37;100.00
48553;BME280;34335;51.566;6.994;2023-01-15T02:10:30;99376.41;;;5.40;100.00
48553;BME280;34335;51.566;6.994;2023-01-15T02:13:15;99380.72;;;5.36;100.00
48553;BME280;34335;51.566;6.994;2023-01-15T02:15:49;99387.56;;;5.48;100.00
48553;BME280;34335;51.566;6.994;2023-01-15T02:18:30;99400.47;;;5.43;100.00
48553;BME280;34335;51.566;6.994;2023-01-15T02:20:57;99399.59;;;5.40;100.00
48553;BME280;34335;51.566;6.994;2023-01-15T02:26:12;99383.28;;;5.38;100.00
48553;BME280;34335;51.566;6.994;2023-01-15T02:28:45;99378.09;;;5.35;100.00
48553;BME280;34335;51.566;6.994;2023-01-15T02:31:37;99366.94;;;5.36;100.00
48553;BME280;34335;51.566;6.994;2023-01-15T02:34:19;99369.53;;;5.26;100.00
48553;BME280;34335;51.566;6.994;2023-01-15T02:36:48;99348.06;;;5.34;100.00
48553;BME280;34335;51.566;6.994;2023-01-15T02:39:17;99368.69;;;5.34;100.00
48553;BME280;34335;51.566;6.994;2023-01-15T02:41:47;99372.97;;;5.32;100.00
48553;BME280;34335;51.566;6.994;2023-01-15T02:44:17;99366.94;;;5.36;100.00
48553;BME280;34335;51.566;6.994;2023-01-15T02:46:44;99363.50;;;5.37;100.00
48553;BME280;34335;51.566;6.994;2023-01-15T02:49:13;99366.97;;;5.37;100.00
48553;BME280;34335;51.566;6.994;2023-01-15T02:51:43;99358.34;;;5.32;100.00
48553;BME280;34335;51.566;6.994;2023-01-15T02:54:13;99349.75;;;5.30;100.00
48553;BME280;34335;51.566;6.994;2023-01-15T02:56:41;99351.50;;;5.33;100.00
48553;BME280;34335;51.566;6.994;2023-01-15T02:59:12;99366.94;;;5.26;100.00
48553;BME280;34335;51.566;6.994;2023-01-15T03:01:43;99358.38;;;5.35;100.00
48553;BME280;34335;51.566;6.994;2023-01-15T03:04:16;99350.63;;;5.30;100.00
48553;BME280;34335;51.566;6.994;2023-01-15T03:06:51;99350.63;;;5.30;100.00
48553;BME280;34335;51.566;6.994;2023-01-15T03:09:20;99358.34;;;5.32;100.00
48553;BME280;34335;51.566;6.994;2023-01-15T03:11:48;99352.34;;;5.25;100.00
48553;BME280;34335;51.566;6.994;2023-01-15T03:14:20;99340.34;;;5.21;100.00
48553;BME280;34335;51.566;6.994;2023-01-15T03:17:01;99338.59;;;5.26;100.00
48553;BME280;34335;51.566;6.994;2023-01-15T03:19:38;99336.88;;;5.25;100.00
48553;BME280;34335;51.566;6.994;2023-01-15T03:22:27;99333.44;;;5.25;100.00
48553;BME280;34335;51.566;6.994;2023-01-15T03:25:08;99331.72;;;5.21;100.00
48553;BME280;34335;51.566;6.994;2023-01-15T03:27:36;99336.88;;;5.28;100.00
48553;BME280;34335;51.566;6.994;2023-01-15T03:30:16;99342.03;;;5.33;100.00
48553;BME280;34335;51.566;6.994;2023-01-15T03:32:42;99333.44;;;5.26;100.00
48553;BME280;34335;51.566;6.994;2023-01-15T03:38:13;99334.28;;;5.25;100.00
48553;BME280;34335;51.566;6.994;2023-01-15T03:40:48;99324.84;;;5.24;100.00
48553;BME280;34335;51.566;6.994;2023-01-15T03:43:15;99331.72;;;5.25;100.00
48553;BME280;34335;51.566;6.994;2023-01-15T03:46:06;99319.72;;;5.21;100.00
48553;BME280;34335;51.566;6.994;2023-01-15T03:48:54;99330.00;;;5.15;100.00
48553;BME280;34335;51.566;6.994;2023-01-15T03:51:36;99327.44;;;5.13;100.00
48553;BME280;34335;51.566;6.994;2023-01-15T03:54:07;99326.59;;;5.14;100.00
48553;BME280;34335;51.566;6.994;2023-01-15T03:56:44;99328.31;;;5.09;100.00
48553;BME280;34335;51.566;6.994;2023-01-15T03:59:31;99330.03;;;5.12;100.00
48553;BME280;34335;51.566;6.994;2023-01-15T04:01:58;99332.59;;;5.10;100.00
48553;BME280;34335;51.566;6.994;2023-01-15T04:04:25;99342.06;;;5.10;100.00
48553;BME280;34335;51.566;6.994;2023-01-15T04:06:51;99330.88;;;5.03;100.00
48553;BME280;34335;51.566;6.994;2023-01-15T04:09:17;99342.94;;;5.03;100.00
48553;BME280;34335;51.566;6.994;2023-01-15T04:11:43;99347.19;;;5.02;100.00
48553;BME280;34335;51.566;6.994;2023-01-15T04:14:11;99346.34;;;5.03;100.00
48553;BME280;34335;51.566;6.994;2023-01-15T04:16:37;99345.50;;;4.99;100.00
48553;BME280;34335;51.566;6.994;2023-01-15T04:19:03;99335.19;;;4.96;100.00
48553;BME280;34335;51.566;6.994;2023-01-15T04:21:28;99334.34;;;4.96;100.00
48553;BME280;34335;51.566;6.994;2023-01-15T04:23:54;99328.31;;;4.97;100.00
48553;BME280;34335;51.566;6.994;2023-01-15T04:26:20;99326.63;;;4.99;100.00
48553;BME280;34335;51.566;6.994;2023-01-15T04:28:45;99332.63;;;5.03;100.00
48553;BME280;34335;51.566;6.994;2023-01-15T04:31:10;99334.31;;;4.97;100.00
48553;BME280;34335;51.566;6.994;2023-01-15T04:33:36;99330.88;;;4.98;100.00
48553;BME280;34335;51.566;6.994;2023-01-15T04:36:02;99331.75;;;4.97;100.00
48553;BME280;34335;51.566;6.994;2023-01-15T04:38:28;99340.34;;;4.99;100.00
48553;BME280;34335;51.566;6.994;2023-01-15T04:40:54;99342.91;;;4.95;100.00
48553;BME280;34335;51.566;6.994;2023-01-15T04:43:38;99347.22;;;5.01;100.00
48553;BME280;34335;51.566;6.994;2023-01-15T04:46:24;99345.50;;;5.07;100.00
48553;BME280;34335;51.566;6.994;2023-01-15T04:48:50;99353.22;;;5.06;100.00
48553;BME280;34335;51.566;6.994;2023-01-15T04:51:15;99350.63;;;5.06;100.00
48553;BME280;34335;51.566;6.994;2023-01-15T04:53:41;99340.34;;;5.09;100.00
48553;BME280;34335;51.566;6.994;2023-01-15T04:56:06;99336.06;;;5.06;100.00
48553;BME280;34335;51.566;6.994;2023-01-15T04:58:32;99342.91;;;5.12;100.00
48553;BME280;34335;51.566;6.994;2023-01-15T05:00:58;99336.91;;;5.04;100.00
48553;BME280;34335;51.566;6.994;2023-01-15T05:03:25;99338.63;;;5.02;100.00
48553;BME280;34335;51.566;6.994;2023-01-15T05:05:51;99336.03;;;5.11;100.00
48553;BME280;34335;51.566;6.994;2023-01-15T05:08:16;99332.59;;;5.06;100.00
48553;BME280;34335;51.566;6.994;2023-01-15T05:10:41;99329.19;;;4.99;100.00
48553;BME280;34335;51.566;6.994;2023-01-15T05:13:07;99336.88;;;5.07;100.00
48553;BME280;34335;51.566;6.994;2023-01-15T05:15:32;99343.78;;;5.14;100.00
48553;BME280;34335;51.566;6.994;2023-01-15T05:17:57;99334.31;;;5.19;100.00
48553;BME280;34335;51.566;6.994;2023-01-15T05:20:23;99337.75;;;5.21;100.00
48553;BME280;34335;51.566;6.994;2023-01-15T05:22:48;99330.91;;;5.19;100.00
48553;BME280;34335;51.566;6.994;2023-01-15T05:25:13;99326.56;;;5.24;100.00
48553;BME280;34335;51.566;6.994;2023-01-15T05:27:38;99324.84;;;5.27;100.00
48553;BME280;34335;51.566;6.994;2023-01-15T05:30:05;99340.34;;;5.29;100.00
48553;BME280;34335;51.566;6.994;2023-01-15T05:32:30;99331.72;;;5.28;100.00
48553;BME280;34335;51.566;6.994;2023-01-15T05:34:56;99343.75;;;5.29;100.00
48553;BME280;34335;51.566;6.994;2023-01-15T05:37:21;99328.28;;;5.31;100.00
48553;BME280;34335;51.566;6.994;2023-01-15T05:39:46;99328.28;;;5.26;100.00
48553;BME280;34335;51.566;6.994;2023-01-15T05:42:12;99339.44;;;5.30;100.00
48553;BME280;34335;51.566;6.994;2023-01-15T05:44:37;99339.44;;;5.33;100.00
48553;BME280;34335;51.566;6.994;2023-01-15T05:47:02;99360.94;;;5.37;100.00
48553;BME280;34335;51.566;6.994;2023-01-15T05:49:32;99342.88;;;5.41;100.00
48553;BME280;34335;51.566;6.994;2023-01-15T05:51:58;99331.69;;;5.39;100.00
48553;BME280;34335;51.566;6.994;2023-01-15T05:54:30;99326.56;;;5.41;100.00
48553;BME280;34335;51.566;6.994;2023-01-15T05:56:57;99330.84;;;5.39;100.00
48553;BME280;34335;51.566;6.994;2023-01-15T05:59:24;99349.75;;;5.47;100.00
48553;BME280;34335;51.566;6.994;2023-01-15T06:01:51;99348.03;;;5.43;100.00
48553;BME280;34335;51.566;6.994;2023-01-15T06:04:17;99343.72;;;5.40;100.00
48553;BME280;34335;51.566;6.994;2023-01-15T06:06:45;99341.16;;;5.43;100.00
48553;BME280;34335;51.566;6.994;2023-01-15T06:09:11;99340.28;;;5.46;100.00
48553;BME280;34335;51.566;6.994;2023-01-15T06:11:36;99338.56;;;5.48;100.00
48553;BME280;34335;51.566;6.994;2023-01-15T06:14:01;99348.91;;;5.42;100.00
48553;BME280;34335;51.566;6.994;2023-01-15T06:16:27;99355.75;;;5.46;100.00
48553;BME280;34335;51.566;6.994;2023-01-15T06:18:52;99342.88;;;5.41;100.00
48553;BME280;34335;51.566;6.994;2023-01-15T06:21:18;99358.34;;;5.43;100.00
48553;BME280;34335;51.566;6.994;2023-01-15T06:23:43;99345.44;;;5.49;100.00
48553;BME280;34335;51.566;6.994;2023-01-15T06:26:14;99350.59;;;5.52;100.00
48553;BME280;34335;51.566;6.994;2023-01-15T06:28:41;99350.63;;;5.48;100.00
48553;BME280;34335;51.566;6.994;2023-01-15T06:31:08;99348.03;;;5.48;100.00
48553;BME280;34335;51.566;6.994;2023-01-15T06:33:34;99342.88;;;5.43;100.00
48553;BME280;34335;51.566;6.994;2023-01-15T06:36:08;99350.63;;;5.43;100.00
48553;BME280;34335;51.566;6.994;2023-01-15T06:38:35;99354.06;;;5.42;100.00
48553;BME280;34335;51.566;6.994;2023-01-15T06:41:02;99359.19;;;5.40;100.00
48553;BME280;34335;51.566;6.994;2023-01-15T06:43:28;99356.63;;;5.40;100.00
48553;BME280;34335;51.566;6.994;2023-01-15T06:46:12;99366.06;;;5.41;100.00
48553;BME280;34335;51.566;6.994;2023-01-15T06:48:57;99363.53;;;5.38;100.00
48553;BME280;34335;51.566;6.994;2023-01-15T06:51:23;99373.81;;;5.41;100.00
48553;BME280;34335;51.566;6.994;2023-01-15T06:53:48;99367.81;;;5.05;100.00
48553;BME280;34335;51.566;6.994;2023-01-15T06:56:14;99350.66;;;4.93;100.00
48553;BME280;34335;51.566;6.994;2023-01-15T06:58:40;99360.94;;;4.92;100.00
48553;BME280;34335;51.566;6.994;2023-01-15T07:01:13;99357.50;;;4.87;100.00
48553;BME280;34335;51.566;6.994;2023-01-15T07:03:39;99351.53;;;5.05;100.00
48553;BME280;34335;51.566;6.994;2023-01-15T07:06:09;99335.19;;;5.03;100.00
48553;BME280;34335;51.566;6.994;2023-01-15T07:08:35;99326.59;;;5.10;100.00
48553;BME280;34335;51.566;6.994;2023-01-15T07:11:06;99323.16;;;5.20;100.00
48553;BME280;34335;51.566;6.994;2023-01-15T07:13:32;99324.88;;;5.21;100.00
48553;BME280;34335;51.566;6.994;2023-01-15T07:16:01;99326.59;;;5.18;100.00
48553;BME280;34335;51.566;6.994;2023-01-15T07:18:29;99324.84;;;5.15;100.00
48553;BME280;34335;51.566;6.994;2023-01-15T07:20:55;99342.03;;;5.19;100.00
48553;BME280;34335;51.566;6.994;2023-01-15T07:23:25;99344.59;;;5.30;100.00
48553;BME280;34335;51.566;6.994;2023-01-15T07:25:52;99340.31;;;5.37;100.00
48553;BME280;34335;51.566;6.994;2023-01-15T07:28:18;99360.09;;;5.27;100.00
48553;BME280;34335;51.566;6.994;2023-01-15T07:30:44;99357.50;;;5.28;100.00
48553;BME280;34335;51.566;6.994;2023-01-15T07:33:09;99379.00;;;5.29;100.00
48553;BME280;34335;51.566;6.994;2023-01-15T07:35:35;99375.56;;;5.32;100.00
48553;BME280;34335;51.566;6.994;2023-01-15T07:38:01;99376.41;;;5.26;100.00
48553;BME280;34335;51.566;6.994;2023-01-15T07:40:26;99391.88;;;5.30;100.00
48553;BME280;34335;51.566;6.994;2023-01-15T07:42:52;99388.44;;;5.27;100.00
48553;BME280;34335;51.566;6.994;2023-01-15T07:45:38;99393.59;;;5.33;100.00
48553;BME280;34335;51.566;6.994;2023-01-15T07:48:22;99389.31;;;5.34;100.00
48553;BME280;34335;51.566;6.994;2023-01-15T07:51:06;99391.03;;;5.32;100.00
48553;BME280;34335;51.566;6.994;2023-01-15T07:53:31;99382.44;;;5.33;100.00
48553;BME280;34335;51.566;6.994;2023-01-15T07:55:56;99380.69;;;5.28;100.00
48553;BME280;34335;51.566;6.994;2023-01-15T07:58:22;99391.88;;;5.37;100.00
48553;BME280;34335;51.566;6.994;2023-01-15T08:00:47;99395.28;;;5.40;100.00
48553;BME280;34335;51.566;6.994;2023-01-15T08:03:12;99388.41;;;5.39;100.00
48553;BME280;34335;51.566;6.994;2023-01-15T08:05:38;99393.56;;;5.35;100.00
48553;BME280;34335;51.566;6.994;2023-01-15T08:08:03;99403.03;;;5.31;100.00
48553;BME280;34335;51.566;6.994;2023-01-15T08:10:29;99407.34;;;5.27;100.00
48553;BME280;34335;51.566;6.994;2023-01-15T08:12:54;99415.94;;;5.28;100.00
48553;BME280;34335;51.566;6.994;2023-01-15T08:15:39;99409.06;;;5.27;100.00
48553;BME280;34335;51.566;6.994;2023-01-15T08:18:06;99416.78;;;5.30;100.00
48553;BME280;34335;51.566;6.994;2023-01-15T08:20:33;99420.25;;;5.30;100.00
48553;BME280;34335;51.566;6.994;2023-01-15T08:23:00;99417.66;;;5.26;100.00
48553;BME280;34335;51.566;6.994;2023-01-15T08:25:25;99416.78;;;5.24;100.00
48553;BME280;34335;51.566;6.994;2023-01-15T08:27:51;99419.38;;;5.32;100.00
48553;BME280;34335;51.566;6.994;2023-01-15T08:30:20;99418.53;;;5.28;100.00
48553;BME280;34335;51.566;6.994;2023-01-15T08:32:46;99426.25;;;5.29;100.00
48553;BME280;34335;51.566;6.994;2023-01-15T08:35:11;99437.41;;;5.24;100.00
48553;BME280;34335;51.566;6.994;2023-01-15T08:37:37;99435.72;;;5.29;100.00
48553;BME280;34335;51.566;6.994;2023-01-15T08:40:03;99440.00;;;5.32;100.00
48553;BME280;34335;51.566;6.994;2023-01-15T08:42:28;99429.69;;;5.28;100.00
48553;BME280;34335;51.566;6.994;2023-01-15T08:44:54;99446.88;;;5.23;100.00
48553;BME280;34335;51.566;6.994;2023-01-15T08:47:19;99427.97;;;5.18;100.00
48553;BME280;34335;51.566;6.994;2023-01-15T08:49:45;99449.44;;;5.22;100.00
48553;BME280;34335;51.566;6.994;2023-01-15T08:52:11;99431.41;;;5.19;100.00
48553;BME280;34335;51.566;6.994;2023-01-15T08:54:37;99439.16;;;5.14;100.00
48553;BME280;34335;51.566;6.994;2023-01-15T08:57:02;99449.44;;;5.11;100.00
48553;BME280;34335;51.566;6.994;2023-01-15T08:59:27;99437.41;;;5.08;100.00
48553;BME280;34335;51.566;6.994;2023-01-15T09:01:53;99438.25;;;5.06;100.00
48553;BME280;34335;51.566;6.994;2023-01-15T09:04:19;99452.84;;;5.01;100.00
48553;BME280;34335;51.566;6.994;2023-01-15T09:06:46;99458.00;;;5.02;100.00
48553;BME280;34335;51.566;6.994;2023-01-15T09:09:11;99445.97;;;4.96;100.00
48553;BME280;34335;51.566;6.994;2023-01-15T09:11:37;99456.28;;;4.99;100.00
48553;BME280;34335;51.566;6.994;2023-01-15T09:14:10;99467.47;;;5.06;100.00
48553;BME280;34335;51.566;6.994;2023-01-15T09:16:36;99452.88;;;5.05;100.00
48553;BME280;34335;51.566;6.994;2023-01-15T09:19:03;99447.69;;;5.07;100.00
48553;BME280;34335;51.566;6.994;2023-01-15T09:21:28;99451.16;;;5.04;100.00
48553;BME280;34335;51.566;6.994;2023-01-15T09:23:53;99450.28;;;5.04;100.00
48553;BME280;34335;51.566;6.994;2023-01-15T09:26:25;99451.13;;;5.06;100.00
48553;BME280;34335;51.566;6.994;2023-01-15T09:28:51;99449.44;;;5.06;100.00
48553;BME280;34335;51.566;6.994;2023-01-15T09:31:16;99444.25;;;5.03;100.00
48553;BME280;34335;51.566;6.994;2023-01-15T09:33:42;99436.53;;;5.06;100.00
48553;BME280;34335;51.566;6.994;2023-01-15T09:36:14;99439.97;;;5.07;100.00
48553;BME280;34335;51.566;6.994;2023-01-15T09:38:39;99450.28;;;5.05;100.00
48553;BME280;34335;51.566;6.994;2023-01-15T09:41:10;99435.69;;;5.04;100.00
48553;BME280;34335;51.566;6.994;2023-01-15T09:52:49;99465.78;;;5.19;100.00
48553;BME280;34335;51.566;6.994;2023-01-15T09:55:24;99455.47;;;5.18;100.00
48553;BME280;34335;51.566;6.994;2023-01-15T09:57:53;99467.47;;;5.12;100.00
48553;BME280;34335;51.566;6.994;2023-01-15T10:00:22;99436.56;;;5.14;100.00
48553;BME280;34335;51.566;6.994;2023-01-15T10:05:20;99446.88;;;5.28;100.00
48553;BME280;34335;51.566;6.994;2023-01-15T10:08:08;99457.19;;;5.33;100.00
48553;BME280;34335;51.566;6.994;2023-01-15T10:10:43;99469.22;;;5.37;100.00
48553;BME280;34335;51.566;6.994;2023-01-15T10:13:20;99467.50;;;5.29;100.00
48553;BME280;34335;51.566;6.994;2023-01-15T10:15:50;99461.50;;;5.29;100.00
48553;BME280;34335;51.566;6.994;2023-01-15T10:18:18;99462.34;;;5.36;100.00
48553;BME280;34335;51.566;6.994;2023-01-15T10:21:14;99460.63;;;5.38;100.00
48553;BME280;34335;51.566;6.994;2023-01-15T10:26:38;99458.91;;;5.35;100.00
48553;BME280;34335;51.566;6.994;2023-01-15T10:29:21;99468.38;;;5.36;100.00
48553;BME280;34335;51.566;6.994;2023-01-15T10:32:00;99447.72;;;5.52;100.00
48553;BME280;34335;51.566;6.994;2023-01-15T10:34:36;99464.03;;;5.77;100.00
48553;BME280;34335;51.566;6.994;2023-01-15T10:37:17;99446.84;;;5.88;100.00
48553;BME280;34335;51.566;6.994;2023-01-15T10:40:30;99442.53;;;5.80;100.00
48553;BME280;34335;51.566;6.994;2023-01-15T10:43:06;99447.69;;;5.80;100.00
48553;BME280;34335;51.566;6.994;2023-01-15T10:45:50;99476.06;;;5.93;100.00
48553;BME280;34335;51.566;6.994;2023-01-15T10:48:24;99443.38;;;6.00;100.00
48553;BME280;34335;51.566;6.994;2023-01-15T10:50:52;99463.16;;;5.97;100.00
48553;BME280;34335;51.566;6.994;2023-01-15T10:53:39;99472.63;;;5.98;100.00
48553;BME280;34335;51.566;6.994;2023-01-15T10:56:20;99458.00;;;5.95;100.00
48553;BME280;34335;51.566;6.994;2023-01-15T10:58:55;99454.56;;;5.99;100.00
48553;BME280;34335;51.566;6.994;2023-01-15T11:01:24;99476.09;;;6.04;100.00
48553;BME280;34335;51.566;6.994;2023-01-15T11:03:51;99470.88;;;6.18;100.00
48553;BME280;34335;51.566;6.994;2023-01-15T11:06:20;99479.50;;;6.17;100.00
48553;BME280;34335;51.566;6.994;2023-01-15T11:08:51;99466.59;;;6.13;100.00
48553;BME280;34335;51.566;6.994;2023-01-15T11:11:24;99493.28;;;6.07;100.00
48553;BME280;34335;51.566;6.994;2023-01-15T11:14:10;99475.22;;;6.05;100.00
48553;BME280;34335;51.566;6.994;2023-01-15T11:16:54;99479.50;;;6.05;100.00
48553;BME280;34335;51.566;6.994;2023-01-15T11:19:36;99484.66;;;6.05;100.00
48553;BME280;34335;51.566;6.994;2023-01-15T11:22:16;99495.84;;;6.16;100.00
48553;BME280;34335;51.566;6.994;2023-01-15T11:24:56;99455.44;;;6.09;100.00
48553;BME280;34335;51.566;6.994;2023-01-15T11:27:25;99451.09;;;6.06;100.00
48553;BME280;34335;51.566;6.994;2023-01-15T11:29:53;99464.88;;;6.07;100.00
48553;BME280;34335;51.566;6.994;2023-01-15T11:32:39;99460.56;;;6.15;100.00
48553;BME280;34335;51.566;6.994;2023-01-15T11:37:33;99460.56;;;6.11;100.00
48553;BME280;34335;51.566;6.994;2023-01-15T11:40:00;99458.00;;;6.07;100.00
48553;BME280;34335;51.566;6.994;2023-01-15T11:42:32;99467.47;;;6.04;100.00
48553;BME280;34335;51.566;6.994;2023-01-15T11:45:18;99473.47;;;6.03;100.00
48553;BME280;34335;51.566;6.994;2023-01-15T11:48:13;99447.69;;;6.06;100.00
48553;BME280;34335;51.566;6.994;2023-01-15T11:51:10;99458.00;;;6.04;100.00
48553;BME280;34335;51.566;6.994;2023-01-15T11:53:48;99464.03;;;6.00;100.00
48553;BME280;34335;51.566;6.994;2023-01-15T11:56:18;99467.47;;;5.99;100.00
48553;BME280;34335;51.566;6.994;2023-01-15T11:58:45;99469.19;;;5.99;100.00
48553;BME280;34335;51.566;6.994;2023-01-15T12:01:19;99469.19;;;6.00;100.00
48553;BME280;34335;51.566;6.994;2023-01-15T12:03:45;99460.59;;;6.01;100.00
48553;BME280;34335;51.566;6.994;2023-01-15T12:06:12;99445.97;;;6.05;100.00
48553;BME280;34335;51.566;6.994;2023-01-15T12:08:45;99470.03;;;6.04;100.00
48553;BME280;34335;51.566;6.994;2023-01-15T12:26:17;99468.31;;;5.95;100.00
48553;BME280;34335;51.566;6.994;2023-01-15T12:28:57;99464.00;;;5.92;100.00
48553;BME280;34335;51.566;6.994;2023-01-15T12:31:37;99446.84;;;5.91;100.00
48553;BME280;34335;51.566;6.994;2023-01-15T12:34:14;99460.56;;;5.89;100.00
48553;BME280;34335;51.566;6.994;2023-01-15T12:36:54;99431.31;;;5.95;100.00
48553;BME280;34335;51.566;6.994;2023-01-15T12:39:51;99443.38;;;5.96;100.00
48553;BME280;34335;51.566;6.994;2023-01-15T12:42:21;99429.59;;;5.93;100.00
48553;BME280;34335;51.566;6.994;2023-01-15T12:45:17;99438.22;;;5.96;100.00
48553;BME280;34335;51.566;6.994;2023-01-15T12:48:06;99442.44;;;6.28;100.00
48553;BME280;34335;51.566;6.994;2023-01-15T12:50:47;99431.25;;;6.22;100.00
48553;BME280;34335;51.566;6.994;2023-01-15T12:56:15;99450.22;;;6.17;100.00
48553;BME280;34335;51.566;6.994;2023-01-15T12:58:47;99438.22;;;6.05;100.00
48553;BME280;34335;51.566;6.994;2023-01-15T13:01:20;99442.50;;;5.98;100.00
48553;BME280;34335;51.566;6.994;2023-01-15T13:04:05;99433.06;;;6.00;100.00
48553;BME280;34335;51.566;6.994;2023-01-15T13:06:33;99437.38;;;6.01;100.00
48553;BME280;34335;51.566;6.994;2023-01-15T13:09:24;99433.94;;;5.99;100.00
48553;BME280;34335;51.566;6.994;2023-01-15T13:11:52;99481.22;;;5.92;100.00
48553;BME280;34335;51.566;6.994;2023-01-15T13:14:18;99442.53;;;5.90;100.00
48553;BME280;34335;51.566;6.994;2023-01-15T13:17:02;99459.72;;;5.90;100.00
48553;BME280;34335;51.566;6.994;2023-01-15T13:19:32;99457.16;;;5.88;100.00
48553;BME280;34335;51.566;6.994;2023-01-15T13:22:07;99447.69;;;5.89;100.00
48553;BME280;34335;51.566;6.994;2023-01-15T13:27:31;99462.28;;;5.98;100.00
48553;BME280;34335;51.566;6.994;2023-01-15T13:32:38;99453.69;;;5.99;100.00
48553;BME280;34335;51.566;6.994;2023-01-15T13:35:29;99443.38;;;5.99;100.00
48553;BME280;34335;51.566;6.994;2023-01-15T13:37:58;99448.53;;;5.99;100.00
48553;BME280;34335;51.566;6.994;2023-01-15T13:40:30;99442.50;;;5.98;100.00
48553;BME280;34335;51.566;6.994;2023-01-15T13:43:00;99453.72;;;5.89;100.00
48553;BME280;34335;51.566;6.994;2023-01-15T13:45:33;99445.09;;;5.87;100.00
48553;BME280;34335;51.566;6.994;2023-01-15T13:48:12;99454.56;;;5.91;100.00
48553;BME280;34335;51.566;6.994;2023-01-15T13:50:42;99458.84;;;5.97;100.00
48553;BME280;34335;51.566;6.994;2023-01-15T13:53:36;99431.34;;;6.01;100.00
48553;BME280;34335;51.566;6.994;2023-01-15T13:56:07;99456.28;;;6.00;100.00
48553;BME280;34335;51.566;6.994;2023-01-15T13:58:37;99468.34;;;6.00;100.00
48553;BME280;34335;51.566;6.994;2023-01-15T14:01:21;99464.03;;;6.02;100.00
48553;BME280;34335;51.566;6.994;2023-01-15T14:06:44;99464.91;;;5.99;100.00